Time;durP1;ratioP1;P1;durP2;ratioP2;P2;SDS_P1;SDS_P2;PMS_P1;PMS_P2;Temp;Humidity;BMP_temperature;BMP_pressure;BME280_temperature;BME280_humidity;BME280_pressure;Samples;Min_cycle;Max_cycle;Signal;HPM_P1;HPM_P2
2023/06/24 00:01:40;;;;;;;0.10;0.10;;;21.90;99.90;;;;;;5057175;28;20045;-76
2023/06/24 00:04:05;;;;;;;0.20;0.20;;;21.90;99.90;;;;;;5056120;28;20048;-74
2023/06/24 00:06:31;;;;;;;0.10;0.10;;;21.20;99.90;;;;;;5056151;28;20086;-74
2023/06/24 00:09:00;;;;;;;0.10;0.10;;;21.20;99.90;;;;;;5038245;28;20521;-73
2023/06/24 00:11:28;;;;;;;0.10;0.10;;;21.20;99.90;;;;;;5056555;28;20025;-72
2023/06/24 00:13:55;;;;;;;0.20;0.20;;;21.30;99.90;;;;;;5056242;28;20454;-72
2023/06/24 00:16:27;;;;;;;0.00;0.00;;;21.10;99.90;;;;;;5056268;28;20097;-72
2023/06/24 00:19:01;;;;;;;0.17;0.17;;;21.20;99.90;;;;;;5056545;28;20100;-73
2023/06/24 00:21:31;;;;;;;0.15;0.15;;;21.50;99.90;;;;;;5056584;28;20559;-72
2023/06/24 00:24:07;;;;;;;0.10;0.10;;;21.70;99.90;;;;;;5038063;28;20549;-72
2023/06/24 00:26:32;;;;;;;0.10;0.10;;;21.70;99.90;;;;;;5037963;28;20353;-72
2023/06/24 00:28:59;;;;;;;0.17;0.17;;;21.80;99.90;;;;;;5056069;28;20020;-73
2023/06/24 00:31:24;;;;;;;0.10;0.10;;;21.90;99.90;;;;;;5056313;28;20028;-79
2023/06/24 00:33:52;;;;;;;23.15;21.10;;;22.00;99.90;;;;;;5056704;28;20183;-76
2023/06/24 00:36:17;;;;;;;0.20;0.20;;;22.30;99.90;;;;;;5058067;28;20030;-73
2023/06/24 00:38:43;;;;;;;8.18;7.57;;;22.00;99.90;;;;;;5060536;28;20392;-84
2023/06/24 00:41:10;;;;;;;0.05;0.05;;;21.70;99.90;;;;;;5043257;28;20561;-83
2023/06/24 00:43:36;;;;;;;0.10;0.10;;;21.70;99.90;;;;;;5056578;28;20297;-73
2023/06/24 00:46:02;;;;;;;0.15;0.15;;;21.90;99.90;;;;;;5060388;28;20040;-82
2023/06/24 00:48:31;;;;;;;0.10;0.10;;;21.90;99.90;;;;;;5061282;28;20016;-79
2023/06/24 00:50:58;;;;;;;0.55;0.55;;;21.90;99.90;;;;;;5061183;28;20035;-85
2023/06/24 00:53:24;;;;;;;0.65;0.65;;;21.60;99.90;;;;;;5060659;28;20543;-84
2023/06/24 00:55:52;;;;;;;0.05;0.05;;;21.00;99.90;;;;;;5061481;28;20443;-80
2023/06/24 00:58:20;;;;;;;0.03;0.03;;;20.80;99.90;;;;;;5061149;28;20108;-84
2023/06/24 01:00:48;;;;;;;0.38;0.38;;;20.90;99.90;;;;;;5061279;28;20060;-81
2023/06/24 01:03:14;;;;;;;0.55;0.55;;;20.70;99.90;;;;;;5045412;28;20206;-77
2023/06/24 01:05:46;;;;;;;1.65;1.58;;;20.50;99.90;;;;;;5062040;28;20085;-84
2023/06/24 01:08:15;;;;;;;0.30;0.30;;;20.40;99.90;;;;;;5061232;28;20213;-77
2023/06/24 01:10:42;;;;;;;0.17;0.17;;;20.90;99.90;;;;;;5061839;28;20468;-73
2023/06/24 01:13:08;;;;;;;0.20;0.20;;;21.00;99.90;;;;;;5060729;28;20012;-76
2023/06/24 01:15:35;;;;;;;0.35;0.35;;;20.70;99.90;;;;;;5060919;28;20037;-77
2023/06/24 01:18:13;;;;;;;0.55;0.45;;;20.30;99.90;;;;;;5043559;28;20098;-76
2023/06/24 01:20:53;;;;;;;1.75;1.75;;;20.10;99.90;;;;;;5060943;28;20024;-85
2023/06/24 01:24:06;;;;;;;0.52;0.52;;;20.00;99.90;;;;;;5061253;28;20055;-78
2023/06/24 01:26:50;;;;;;;0.10;0.10;;;20.00;99.90;;;;;;5060597;28;20037;-77
2023/06/24 01:29:48;;;;;;;0.10;0.10;;;20.20;99.90;;;;;;5060667;28;20025;-74
2023/06/24 01:32:36;;;;;;;0.20;0.20;;;20.00;99.90;;;;;;5061548;28;20050;-79
2023/06/24 01:35:12;;;;;;;0.35;0.35;;;20.60;99.90;;;;;;5060794;28;20201;-73
2023/06/24 01:37:42;;;;;;;0.10;0.10;;;19.80;99.90;;;;;;5060593;28;20510;-73
2023/06/24 01:40:14;;;;;;;0.25;0.25;;;19.80;99.90;;;;;;5061450;28;20048;-79
2023/06/24 01:42:44;;;;;;;1.10;0.73;;;19.90;99.90;;;;;;5061113;28;20087;-77
2023/06/24 01:45:14;;;;;;;0.95;0.95;;;19.90;99.90;;;;;;5059850;28;20037;-83
2023/06/24 01:47:48;;;;;;;0.73;0.73;;;20.10;99.90;;;;;;5060465;28;20035;-82
2023/06/24 01:50:19;;;;;;;0.03;0.03;;;20.10;99.90;;;;;;5061319;28;20157;-77
2023/06/24 01:52:46;;;;;;;7.82;5.10;;;20.00;99.90;;;;;;5059572;28;20104;-76
2023/06/24 01:55:19;;;;;;;0.10;0.10;;;20.30;99.90;;;;;;5060765;28;20499;-78
2023/06/24 01:57:50;;;;;;;0.17;0.17;;;20.40;99.90;;;;;;5042182;28;20025;-81
2023/06/24 02:00:17;;;;;;;4.88;3.80;;;20.50;99.90;;;;;;5060034;28;20031;-74
2023/06/24 02:02:45;;;;;;;3.83;3.35;;;20.70;99.90;;;;;;5045136;28;20040;-77
2023/06/24 02:05:11;;;;;;;0.20;0.20;;;20.80;99.90;;;;;;5042026;28;20052;-74
2023/06/24 02:07:39;;;;;;;0.22;0.22;;;21.10;99.90;;;;;;5060197;28;20078;-75
2023/06/24 02:10:07;;;;;;;0.22;0.22;;;21.20;99.90;;;;;;5040562;28;20090;-81
2023/06/24 02:12:33;;;;;;;1.80;1.70;;;21.00;99.90;;;;;;5042047;28;20419;-75
2023/06/24 02:15:01;;;;;;;0.75;0.75;;;21.00;99.90;;;;;;5042070;28;20151;-75
2023/06/24 02:17:29;;;;;;;0.10;0.10;;;21.30;99.90;;;;;;5060287;28;20032;-72
2023/06/24 02:19:56;;;;;;;1.02;0.85;;;21.50;99.90;;;;;;5061071;28;20017;-73
2023/06/24 02:22:23;;;;;;;0.85;0.85;;;21.50;99.90;;;;;;5060095;28;20017;-73
2023/06/24 02:24:50;;;;;;;0.20;0.20;;;21.70;99.90;;;;;;5042364;28;20467;-73
2023/06/24 02:27:17;;;;;;;0.40;0.40;;;21.70;99.90;;;;;;5058854;28;20033;-76
2023/06/24 02:29:43;;;;;;;0.10;0.10;;;21.80;99.90;;;;;;5058665;28;20043;-74
2023/06/24 02:32:09;;;;;;;0.40;0.40;;;21.80;99.90;;;;;;5058428;28;20032;-75
2023/06/24 02:34:35;;;;;;;1.50;1.40;;;21.90;99.90;;;;;;5059638;28;20032;-82
2023/06/24 02:37:01;;;;;;;0.10;0.10;;;22.00;99.90;;;;;;5059125;28;20313;-81
2023/06/24 02:39:27;;;;;;;0.10;0.10;;;22.10;99.90;;;;;;5059613;28;20123;-82
2023/06/24 02:41:53;;;;;;;0.10;0.10;;;22.10;99.90;;;;;;5059410;28;20035;-78
2023/06/24 02:44:19;;;;;;;0.10;0.10;;;22.20;99.90;;;;;;5059455;28;20020;-78
2023/06/24 02:46:47;;;;;;;0.13;0.13;;;22.30;99.90;;;;;;5059190;28;20040;-83
2023/06/24 02:49:15;;;;;;;0.22;0.22;;;22.40;99.90;;;;;;5059679;28;20017;-74
2023/06/24 02:51:42;;;;;;;0.22;0.22;;;22.30;99.90;;;;;;5041373;28;20182;-77
2023/06/24 02:54:09;;;;;;;0.10;0.10;;;22.40;99.90;;;;;;5058725;28;20086;-86
2023/06/24 02:56:41;;;;;;;0.20;0.20;;;22.40;99.90;;;;;;5060250;28;20039;-82
2023/06/24 02:59:07;;;;;;;0.10;0.10;;;22.40;99.90;;;;;;5041609;28;20033;-73
2023/06/24 03:01:38;;;;;;;0.10;0.10;;;22.40;99.90;;;;;;5059758;28;20025;-78
2023/06/24 03:04:04;;;;;;;0.57;0.57;;;22.50;99.90;;;;;;5060412;28;20353;-89
2023/06/24 03:06:31;;;;;;;0.20;0.20;;;22.60;99.90;;;;;;5059685;28;20446;-85
2023/06/24 03:08:58;;;;;;;1.05;1.05;;;22.50;99.90;;;;;;5058619;28;20087;-74
2023/06/24 03:11:25;;;;;;;0.10;0.10;;;22.50;99.90;;;;;;5058520;28;20308;-85
2023/06/24 03:13:51;;;;;;;0.10;0.10;;;22.50;99.90;;;;;;5059430;28;20095;-82
2023/06/24 03:16:17;;;;;;;0.10;0.10;;;22.40;99.90;;;;;;5059879;28;20032;-82
2023/06/24 03:18:43;;;;;;;0.50;0.50;;;22.20;99.90;;;;;;5065366;28;20021;-84
2023/06/24 03:21:09;;;;;;;0.10;0.10;;;22.10;99.90;;;;;;5063985;28;20043;-86
2023/06/24 03:23:36;;;;;;;0.10;0.10;;;22.10;99.90;;;;;;5064463;28;20086;-75
2023/06/24 03:26:05;;;;;;;0.10;0.10;;;22.20;99.90;;;;;;5060518;28;20445;-74
2023/06/24 03:28:31;;;;;;;0.20;0.20;;;22.20;99.90;;;;;;5059321;28;20067;-80
2023/06/24 03:31:00;;;;;;;0.22;0.22;;;22.30;99.90;;;;;;5059633;28;20447;-76
2023/06/24 03:33:27;;;;;;;0.32;0.32;;;22.20;99.90;;;;;;5059190;28;20020;-75
2023/06/24 03:35:54;;;;;;;0.10;0.10;;;22.40;99.90;;;;;;5057073;28;20024;-75
2023/06/24 03:38:20;;;;;;;0.10;0.10;;;22.40;99.90;;;;;;5057394;28;20024;-78
2023/06/24 03:40:46;;;;;;;4.40;3.03;;;22.30;99.90;;;;;;5056315;28;20105;-76
2023/06/24 03:43:12;;;;;;;11.10;0.85;;;22.00;99.90;;;;;;5058134;28;20288;-81
2023/06/24 03:45:38;;;;;;;0.10;0.10;;;22.30;99.90;;;;;;5057581;28;20549;-75
2023/06/24 03:48:04;;;;;;;0.10;0.10;;;22.40;99.90;;;;;;5057129;28;20043;-77
2023/06/24 03:50:30;;;;;;;0.93;0.93;;;22.40;99.90;;;;;;5059594;28;20020;-77
2023/06/24 03:52:55;;;;;;;0.50;0.50;;;22.40;99.90;;;;;;5060042;28;20037;-76
2023/06/24 03:55:21;;;;;;;0.25;0.25;;;22.40;99.90;;;;;;5062996;28;20024;-75
2023/06/24 03:57:47;;;;;;;0.43;0.43;;;22.40;99.90;;;;;;5063025;28;20029;-77
2023/06/24 04:00:15;;;;;;;0.55;0.55;;;22.40;99.90;;;;;;5064356;28;20017;-79
2023/06/24 04:02:41;;;;;;;0.20;0.20;;;22.40;99.90;;;;;;5064389;28;20044;-76
2023/06/24 04:05:08;;;;;;;0.20;0.20;;;22.40;99.90;;;;;;5059421;28;20041;-78
2023/06/24 04:07:35;;;;;;;0.10;0.10;;;22.20;99.90;;;;;;5059394;28;20577;-79
2023/06/24 04:10:03;;;;;;;0.28;0.28;;;22.20;99.90;;;;;;5058650;28;20258;-76
2023/06/24 04:12:29;;;;;;;0.10;0.10;;;22.30;99.90;;;;;;5058109;28;20033;-82
2023/06/24 04:14:55;;;;;;;0.85;0.85;;;22.30;99.90;;;;;;5057563;28;20044;-78
2023/06/24 04:17:22;;;;;;;0.10;0.10;;;22.20;99.90;;;;;;5058375;28;20182;-83
2023/06/24 04:19:48;;;;;;;0.20;0.20;;;22.20;99.90;;;;;;5060847;28;20104;-77
2023/06/24 04:22:13;;;;;;;0.10;0.10;;;22.20;99.90;;;;;;5062299;28;20155;-75
2023/06/24 04:24:39;;;;;;;0.20;0.20;;;22.30;99.90;;;;;;5061238;28;20047;-76
2023/06/24 04:27:07;;;;;;;0.10;0.10;;;22.30;99.90;;;;;;5062530;28;20030;-77
2023/06/24 04:29:32;;;;;;;0.73;0.73;;;22.30;99.90;;;;;;5061349;28;20021;-77
2023/06/24 04:31:58;;;;;;;12.13;11.05;;;22.30;99.90;;;;;;5061677;28;20547;-81
2023/06/24 04:34:24;;;;;;;8.32;7.85;;;22.40;99.90;;;;;;5061811;28;20070;-74
2023/06/24 04:36:50;;;;;;;0.10;0.10;;;22.30;99.90;;;;;;5060203;28;20103;-84
2023/06/24 04:39:15;;;;;;;0.65;0.65;;;22.40;99.90;;;;;;5061402;28;20308;-79
2023/06/24 04:41:41;;;;;;;0.10;0.10;;;22.30;99.90;;;;;;5061028;28;20130;-86
2023/06/24 04:44:07;;;;;;;0.10;0.10;;;22.20;99.90;;;;;;5060926;28;20512;-76
2023/06/24 04:46:34;;;;;;;0.70;0.70;;;22.00;99.90;;;;;;5060543;28;20477;-78
2023/06/24 04:49:00;;;;;;;1.10;0.73;;;22.00;99.90;;;;;;5061034;28;20009;-75
2023/06/24 04:51:26;;;;;;;0.10;0.10;;;22.10;99.90;;;;;;5042733;28;20147;-78
2023/06/24 04:53:51;;;;;;;0.10;0.10;;;22.00;99.90;;;;;;5060739;28;20094;-75
2023/06/24 04:56:17;;;;;;;0.65;0.65;;;22.10;99.90;;;;;;5060723;28;20024;-77
2023/06/24 04:58:43;;;;;;;0.10;0.10;;;22.10;99.90;;;;;;5060695;28;20047;-80
2023/06/24 05:01:08;;;;;;;0.20;0.20;;;22.10;99.90;;;;;;5060837;28;20032;-80
2023/06/24 05:03:34;;;;;;;0.10;0.10;;;22.10;99.90;;;;;;5061155;28;20118;-86
2023/06/24 05:06:00;;;;;;;0.38;0.38;;;22.20;99.90;;;;;;5060787;28;20086;-81
2023/06/24 05:08:26;;;;;;;3.72;3.50;;;22.30;99.90;;;;;;5060798;28;20105;-75
2023/06/24 05:10:51;;;;;;;0.63;0.63;;;22.20;99.90;;;;;;5060406;28;20028;-79
2023/06/24 05:13:17;;;;;;;0.10;0.10;;;22.50;99.90;;;;;;5060819;28;20020;-79
2023/06/24 05:15:43;;;;;;;0.20;0.20;;;22.60;99.90;;;;;;5059986;28;20446;-89
2023/06/24 05:18:09;;;;;;;0.10;0.10;;;22.90;99.90;;;;;;5060580;28;20031;-74
2023/06/24 05:20:34;;;;;;;0.20;0.20;;;22.80;99.90;;;;;;5060027;28;20107;-87
2023/06/24 05:23:00;;;;;;;0.20;0.20;;;22.70;99.90;;;;;;5060443;28;20510;-77
2023/06/24 05:25:26;;;;;;;0.20;0.20;;;22.70;99.90;;;;;;5060115;28;20515;-87
2023/06/24 05:27:51;;;;;;;0.17;0.17;;;22.60;99.90;;;;;;5060004;28;20021;-73
2023/06/24 05:30:17;;;;;;;0.63;0.63;;;22.10;99.90;;;;;;5059951;28;20479;-75
2023/06/24 05:32:43;;;;;;;0.10;0.10;;;22.50;99.90;;;;;;5060210;28;20017;-78
2023/06/24 05:35:09;;;;;;;0.10;0.10;;;22.50;99.90;;;;;;5060178;28;20530;-78
2023/06/24 05:37:35;;;;;;;2.35;1.58;;;22.20;99.90;;;;;;5059940;28;20081;-75
2023/06/24 05:40:01;;;;;;;0.98;0.98;;;22.20;99.90;;;;;;5059134;28;20020;-84
2023/06/24 05:42:27;;;;;;;0.10;0.10;;;22.20;99.90;;;;;;5042225;28;20113;-82
2023/06/24 05:44:53;;;;;;;0.30;0.30;;;22.40;99.90;;;;;;5060525;28;20495;-84
2023/06/24 05:47:19;;;;;;;0.10;0.10;;;22.30;99.90;;;;;;5059296;28;20122;-80
2023/06/24 05:49:45;;;;;;;0.10;0.10;;;22.10;99.90;;;;;;5060217;28;20063;-76
2023/06/24 05:52:11;;;;;;;0.73;0.73;;;21.80;99.90;;;;;;5059255;28;20108;-80
2023/06/24 05:54:37;;;;;;;0.35;0.35;;;21.50;99.90;;;;;;5059275;28;20027;-77
2023/06/24 05:57:06;;;;;;;0.08;0.08;;;21.60;99.90;;;;;;5058887;28;20021;-76
2023/06/24 05:59:36;;;;;;;0.10;0.10;;;21.70;99.90;;;;;;5041707;28;20157;-79
2023/06/24 06:02:02;;;;;;;0.10;0.10;;;21.70;99.90;;;;;;5061333;28;20013;-73
2023/06/24 06:04:28;;;;;;;0.10;0.10;;;21.60;99.90;;;;;;5059729;28;20356;-73
2023/06/24 06:06:54;;;;;;;0.10;0.10;;;21.50;99.90;;;;;;5058354;28;20464;-72
2023/06/24 06:09:21;;;;;;;0.10;0.10;;;21.60;99.90;;;;;;5058321;28;20036;-73
2023/06/24 06:11:47;;;;;;;7.85;3.58;;;21.70;99.90;;;;;;5057370;28;20107;-73
2023/06/24 06:14:13;;;;;;;3.70;3.40;;;21.90;99.90;;;;;;5039156;28;20264;-72
2023/06/24 06:16:39;;;;;;;0.10;0.10;;;21.90;99.90;;;;;;5057772;28;20380;-73
2023/06/24 06:19:05;;;;;;;0.30;0.30;;;21.90;99.90;;;;;;5057311;28;20396;-73
2023/06/24 06:21:31;;;;;;;0.10;0.10;;;22.00;99.90;;;;;;5039454;28;20021;-72
2023/06/24 06:23:57;;;;;;;0.10;0.10;;;21.90;99.90;;;;;;5057902;28;20028;-73
2023/06/24 06:26:23;;;;;;;0.45;0.45;;;21.90;99.90;;;;;;5039123;28;20438;-72
2023/06/24 06:28:49;;;;;;;0.10;0.10;;;21.90;99.90;;;;;;5057499;28;20048;-73
2023/06/24 06:31:16;;;;;;;0.10;0.10;;;21.90;99.90;;;;;;5057915;28;20024;-73
2023/06/24 06:33:43;;;;;;;0.10;0.10;;;21.60;99.90;;;;;;5057747;28;20125;-75
2023/06/24 06:36:09;;;;;;;0.10;0.10;;;21.30;99.90;;;;;;5059406;28;20672;-78
2023/06/24 06:38:34;;;;;;;0.05;0.05;;;21.30;99.90;;;;;;5058278;28;20028;-73
2023/06/24 06:41:00;;;;;;;0.10;0.10;;;21.30;99.90;;;;;;5039960;28;20086;-74
2023/06/24 06:43:26;;;;;;;0.10;0.10;;;21.50;99.90;;;;;;5057112;28;20025;-73
2023/06/24 06:45:52;;;;;;;0.10;0.10;;;21.80;99.90;;;;;;5057980;28;20073;-72
2023/06/24 06:48:18;;;;;;;0.10;0.10;;;21.60;99.90;;;;;;5057836;28;20059;-77
2023/06/24 06:50:45;;;;;;;0.20;0.20;;;21.90;99.90;;;;;;5057913;28;20025;-73
2023/06/24 06:53:11;;;;;;;0.20;0.20;;;22.00;99.90;;;;;;5057718;28;20205;-73
2023/06/24 06:55:39;;;;;;;0.10;0.10;;;22.10;99.90;;;;;;5057443;28;20023;-74
2023/06/24 06:58:05;;;;;;;0.00;0.00;;;22.00;99.90;;;;;;5057303;28;20070;-74
2023/06/24 07:00:31;;;;;;;0.10;0.10;;;22.00;99.90;;;;;;5057119;28;20110;-73
2023/06/24 07:02:56;;;;;;;0.10;0.10;;;21.60;99.90;;;;;;5058247;28;20629;-82
2023/06/24 07:05:23;;;;;;;0.10;0.10;;;21.70;99.90;;;;;;5058054;28;20118;-76
2023/06/24 07:07:50;;;;;;;0.20;0.20;;;21.20;99.90;;;;;;5058591;28;20044;-87
2023/06/24 07:10:16;;;;;;;0.20;0.20;;;20.90;99.90;;;;;;5059244;28;20121;-80
2023/06/24 07:12:42;;;;;;;0.10;0.10;;;21.20;99.90;;;;;;5059210;28;20032;-81
2023/06/24 07:15:09;;;;;;;0.28;0.28;;;21.20;99.90;;;;;;5059346;28;20597;-74
2023/06/24 07:17:34;;;;;;;0.20;0.20;;;21.40;99.90;;;;;;5059690;28;20024;-80
2023/06/24 07:20:00;;;;;;;0.57;0.57;;;21.40;99.90;;;;;;5058914;28;20032;-77
2023/06/24 07:22:26;;;;;;;0.73;0.73;;;21.80;99.90;;;;;;5057032;28;20013;-74
2023/06/24 07:24:52;;;;;;;0.10;0.10;;;21.30;99.90;;;;;;5057971;28;20617;-74
2023/06/24 07:27:18;;;;;;;0.10;0.10;;;21.20;99.90;;;;;;5057476;28;20059;-74
2023/06/24 07:29:44;;;;;;;0.30;0.30;;;21.60;99.90;;;;;;5057329;28;20706;-73
2023/06/24 07:32:09;;;;;;;0.20;0.20;;;21.00;99.90;;;;;;5056926;28;20655;-72
2023/06/24 07:34:35;;;;;;;0.20;0.20;;;20.80;99.90;;;;;;5057350;28;20758;-72
2023/06/24 07:37:01;;;;;;;1.95;1.85;;;20.80;99.90;;;;;;5057262;28;20571;-72
2023/06/24 07:39:27;;;;;;;4.75;3.20;;;20.80;99.90;;;;;;5057309;28;20111;-74
2023/06/24 07:41:53;;;;;;;0.10;0.10;;;21.50;99.90;;;;;;5057305;28;20217;-75
2023/06/24 07:44:19;;;;;;;0.20;0.20;;;21.30;99.90;;;;;;5057577;28;20081;-75
2023/06/24 07:46:45;;;;;;;0.10;0.10;;;21.20;99.90;;;;;;5039348;28;20094;-74
2023/06/24 07:49:10;;;;;;;0.55;0.55;;;19.90;99.90;;;;;;5057259;28;20020;-74
2023/06/24 07:51:36;;;;;;;0.10;0.10;;;21.00;99.90;;;;;;5058292;28;20958;-83
2023/06/24 07:54:02;;;;;;;0.20;0.20;;;21.00;99.90;;;;;;5059058;28;20021;-82
2023/06/24 07:56:28;;;;;;;0.22;0.22;;;21.30;99.90;;;;;;5059176;28;20092;-78
2023/06/24 07:58:53;;;;;;;0.20;0.20;;;21.30;99.90;;;;;;5059929;28;20717;-76
2023/06/24 08:01:19;;;;;;;0.93;0.93;;;21.30;99.90;;;;;;5059843;28;20059;-75
2023/06/24 08:03:45;;;;;;;3.67;2.53;;;21.30;99.90;;;;;;5044408;28;20579;-73
2023/06/24 08:06:11;;;;;;;0.10;0.10;;;21.30;99.90;;;;;;5061447;28;20097;-73
2023/06/24 08:08:37;;;;;;;1.02;1.02;;;21.40;99.90;;;;;;5062696;28;20288;-84
2023/06/24 08:11:05;;;;;;;0.10;0.10;;;21.50;99.90;;;;;;5058813;28;20056;-78
2023/06/24 08:13:30;;;;;;;0.10;0.10;;;21.40;99.90;;;;;;5060038;28;20017;-81
2023/06/24 08:15:57;;;;;;;0.73;0.60;;;21.40;99.90;;;;;;5041552;28;20163;-75
2023/06/24 08:18:22;;;;;;;0.10;0.10;;;21.30;99.90;;;;;;5059718;28;20013;-74
2023/06/24 08:20:48;;;;;;;1.35;0.65;;;21.40;99.90;;;;;;5061168;28;20426;-71
2023/06/24 08:23:14;;;;;;;2.20;2.10;;;21.00;99.90;;;;;;5057196;28;20028;-74
2023/06/24 08:25:40;;;;;;;0.20;0.20;;;20.80;99.90;;;;;;5058119;28;20032;-73
2023/06/24 08:28:08;;;;;;;0.20;0.20;;;20.80;99.90;;;;;;5058905;28;20700;-73
2023/06/24 08:30:33;;;;;;;1.08;0.95;;;21.10;99.90;;;;;;5039127;28;20134;-75
2023/06/24 08:32:59;;;;;;;0.32;0.32;;;21.30;99.90;;;;;;5064724;28;20036;-74
2023/06/24 08:35:25;;;;;;;0.10;0.10;;;21.60;99.90;;;;;;5060855;28;20032;-75
2023/06/24 08:37:51;;;;;;;1.50;1.40;;;21.70;99.90;;;;;;5048713;28;20021;-75
2023/06/24 08:40:17;;;;;;;0.10;0.10;;;21.90;99.90;;;;;;5050007;28;20254;-74
2023/06/24 08:42:44;;;;;;;0.10;0.10;;;22.10;99.90;;;;;;5069582;28;20040;-75
2023/06/24 08:45:11;;;;;;;0.47;0.47;;;22.20;99.90;;;;;;5069389;28;20041;-77
2023/06/24 08:47:37;;;;;;;0.90;0.90;;;22.20;99.90;;;;;;5070504;28;20024;-80
2023/06/24 08:50:11;;;;;;;12.15;2.65;;;22.40;99.90;;;;;;5066199;28;20020;-79
2023/06/24 08:52:41;;;;;;;0.10;0.10;;;22.40;99.90;;;;;;5064677;28;20044;-75
2023/06/24 08:55:10;;;;;;;0.65;0.65;;;22.40;99.90;;;;;;5040446;28;20085;-76
2023/06/24 08:57:36;;;;;;;0.20;0.20;;;22.40;99.90;;;;;;5039634;28;20037;-72
2023/06/24 09:00:03;;;;;;;0.43;0.43;;;21.90;99.90;;;;;;5057643;28;20498;-74
2023/06/24 09:02:32;;;;;;;0.10;0.10;;;22.20;99.90;;;;;;5057318;28;20053;-82
2023/06/24 09:04:58;;;;;;;0.10;0.10;;;22.10;99.90;;;;;;5057163;28;20236;-81
2023/06/24 09:07:30;;;;;;;0.40;0.40;;;22.20;99.90;;;;;;5060111;28;20232;-74
2023/06/24 09:09:56;;;;;;;1.23;1.17;;;22.20;99.90;;;;;;5059237;28;20025;-74
2023/06/24 09:12:25;;;;;;;0.22;0.22;;;22.10;99.90;;;;;;5058193;28;20133;-74
2023/06/24 09:14:51;;;;;;;0.20;0.20;;;22.30;99.90;;;;;;5058761;28;20110;-74
2023/06/24 09:17:20;;;;;;;0.17;0.17;;;22.20;99.90;;;;;;5058920;28;20944;-75
2023/06/24 09:19:46;;;;;;;0.10;0.10;;;22.20;99.90;;;;;;5059141;28;20429;-74
2023/06/24 09:22:21;;;;;;;0.93;0.93;;;22.10;99.90;;;;;;5059016;28;20162;-74
2023/06/24 09:24:48;;;;;;;0.10;0.10;;;21.80;99.90;;;;;;5060584;28;20438;-73
2023/06/24 09:27:15;;;;;;;0.28;0.28;;;21.90;99.90;;;;;;5061094;28;20043;-75
2023/06/24 09:29:42;;;;;;;0.10;0.10;;;22.10;99.90;;;;;;5059739;28;20025;-73
2023/06/24 09:32:09;;;;;;;0.10;0.10;;;21.90;99.90;;;;;;5042005;28;20321;-74
2023/06/24 09:34:35;;;;;;;0.10;0.10;;;21.80;99.90;;;;;;5058879;28;20025;-75
2023/06/24 09:37:01;;;;;;;0.22;0.22;;;21.80;99.90;;;;;;5040855;28;20178;-73
2023/06/24 09:39:31;;;;;;;0.30;0.30;;;22.30;99.90;;;;;;5059707;28;20116;-73
2023/06/24 09:41:58;;;;;;;0.10;0.10;;;22.00;99.90;;;;;;5041055;28;20206;-72
2023/06/24 09:44:25;;;;;;;0.10;0.10;;;22.20;99.90;;;;;;5058778;28;20025;-72
2023/06/24 09:46:52;;;;;;;0.30;0.30;;;22.30;99.90;;;;;;5059122;28;20032;-75
2023/06/24 09:49:18;;;;;;;0.68;0.68;;;22.50;99.90;;;;;;5059121;28;20029;-73
2023/06/24 09:51:47;;;;;;;0.30;0.30;;;22.50;99.90;;;;;;5059531;28;20074;-73
2023/06/24 09:54:14;;;;;;;0.32;0.32;;;22.60;99.90;;;;;;5060228;28;20017;-74
2023/06/24 09:56:47;;;;;;;0.10;0.10;;;22.60;99.90;;;;;;5061157;28;20025;-73
2023/06/24 09:59:14;;;;;;;0.20;0.20;;;22.70;99.90;;;;;;5042082;28;20115;-73
2023/06/24 10:01:43;;;;;;;0.38;0.38;;;22.70;99.90;;;;;;5059982;28;20363;-72
2023/06/24 10:04:13;;;;;;;0.43;0.25;;;22.90;99.90;;;;;;5041442;28;20143;-75
2023/06/24 10:06:39;;;;;;;0.30;0.30;;;22.80;99.90;;;;;;5042102;28;20678;-73
2023/06/24 10:09:05;;;;;;;0.13;0.13;;;22.80;99.90;;;;;;5059502;28;20163;-71
2023/06/24 10:11:30;;;;;;;0.10;0.10;;;22.90;99.90;;;;;;5059401;28;20016;-74
2023/06/24 10:13:56;;;;;;;0.10;0.10;;;22.90;99.90;;;;;;5059277;28;20662;-74
2023/06/24 10:16:23;;;;;;;0.10;0.10;;;22.90;99.90;;;;;;5058845;28;20009;-74
2023/06/24 10:18:50;;;;;;;0.17;0.17;;;22.80;99.90;;;;;;5041360;28;20036;-74
2023/06/24 10:21:16;;;;;;;0.20;0.20;;;22.80;99.90;;;;;;5059004;28;20059;-74
2023/06/24 10:23:53;;;;;;;0.25;0.25;;;22.90;99.90;;;;;;5059330;28;20131;-80
2023/06/24 10:26:30;;;;;;;0.10;0.10;;;22.90;99.90;;;;;;5059573;28;20028;-72
2023/06/24 10:29:07;;;;;;;0.08;0.08;;;23.00;99.90;;;;;;5060096;28;20099;-73
2023/06/24 10:31:39;;;;;;;0.80;0.70;;;23.00;99.90;;;;;;5059892;28;20052;-73
2023/06/24 10:34:43;;;;;;;1.98;1.58;;;22.80;99.90;;;;;;5060318;28;20017;-79
2023/06/24 10:37:19;;;;;;;0.15;0.15;;;22.90;99.90;;;;;;5060776;28;20028;-73
2023/06/24 10:40:02;;;;;;;0.52;0.52;;;22.90;99.90;;;;;;5058813;28;20013;-71
2023/06/24 10:42:34;;;;;;;0.30;0.30;;;22.90;99.90;;;;;;5039863;28;20012;-72
2023/06/24 10:45:02;;;;;;;2.90;2.60;;;22.80;99.90;;;;;;5040204;28;20029;-72
2023/06/24 10:47:29;;;;;;;0.10;0.10;;;22.90;99.90;;;;;;5040255;28;20073;-73
2023/06/24 10:49:56;;;;;;;1.65;0.95;;;22.90;99.90;;;;;;5058375;28;20046;-72
2023/06/24 10:52:23;;;;;;;0.10;0.10;;;23.00;99.90;;;;;;5058274;28;20767;-77
2023/06/24 10:54:50;;;;;;;0.10;0.10;;;23.10;99.90;;;;;;5058130;28;20034;-72
2023/06/24 10:57:23;;;;;;;0.60;0.60;;;23.20;99.90;;;;;;5057849;28;20032;-72
2023/06/24 10:59:49;;;;;;;0.10;0.10;;;23.20;99.90;;;;;;5039850;28;20032;-72
2023/06/24 11:02:17;;;;;;;2.05;1.27;;;23.20;99.90;;;;;;5058182;28;20052;-72
2023/06/24 11:04:43;;;;;;;0.63;0.63;;;23.30;99.90;;;;;;5057708;28;20040;-72
2023/06/24 11:07:09;;;;;;;0.20;0.20;;;23.00;99.90;;;;;;5058207;28;20067;-73
2023/06/24 11:09:35;;;;;;;0.17;0.17;;;22.70;99.90;;;;;;5059109;28;20025;-72
2023/06/24 11:12:03;;;;;;;0.10;0.10;;;22.80;99.90;;;;;;5058145;28;20112;-73
2023/06/24 11:14:29;;;;;;;0.10;0.10;;;22.60;99.90;;;;;;5058735;28;20701;-77
2023/06/24 11:16:55;;;;;;;0.95;0.95;;;22.50;99.90;;;;;;5058431;28;20663;-76
2023/06/24 11:19:21;;;;;;;0.13;0.13;;;22.70;99.90;;;;;;5058637;28;20021;-80
2023/06/24 11:21:46;;;;;;;0.10;0.10;;;22.90;99.90;;;;;;5040204;28;20020;-81
2023/06/24 11:24:12;;;;;;;0.93;0.93;;;22.90;99.90;;;;;;5058523;28;20020;-75
2023/06/24 11:26:38;;;;;;;2.05;1.85;;;22.90;99.90;;;;;;5058851;28;20029;-78
2023/06/24 11:29:13;;;;;;;0.10;0.10;;;23.00;99.90;;;;;;5058301;28;20085;-73
2023/06/24 11:31:39;;;;;;;0.10;0.10;;;23.10;99.90;;;;;;5058683;28;20037;-79
2023/06/24 11:34:05;;;;;;;0.20;0.20;;;23.10;99.90;;;;;;5044865;28;20248;-80
2023/06/24 11:36:31;;;;;;;0.40;0.30;;;23.10;99.90;;;;;;5064123;28;20029;-73
2023/06/24 11:38:57;;;;;;;0.82;0.82;;;23.10;99.90;;;;;;5044443;28;20130;-77
2023/06/24 11:41:25;;;;;;;0.10;0.10;;;23.20;99.90;;;;;;5061818;28;20036;-73
2023/06/24 11:43:51;;;;;;;0.30;0.30;;;22.90;99.90;;;;;;5057513;28;20013;-73
2023/06/24 11:46:27;;;;;;;0.10;0.10;;;22.90;99.90;;;;;;5057966;28;20042;-73
2023/06/24 11:49:02;;;;;;;2.03;1.92;;;22.80;99.90;;;;;;5058731;28;20079;-72
2023/06/24 11:51:28;;;;;;;0.20;0.20;;;22.90;99.90;;;;;;5058104;28;20142;-79
2023/06/24 11:54:02;;;;;;;1.08;1.08;;;23.20;99.90;;;;;;5039403;28;20124;-76
2023/06/24 11:56:39;;;;;;;2.15;1.98;;;23.20;99.90;;;;;;5058033;28;20016;-73
2023/06/24 11:59:24;;;;;;;0.10;0.10;;;23.10;99.90;;;;;;5057836;28;20028;-73
2023/06/24 12:02:00;;;;;;;5.32;5.05;;;23.20;99.90;;;;;;5039554;28;20016;-74
2023/06/24 12:04:36;;;;;;;0.20;0.20;;;23.20;99.90;;;;;;5057340;28;20090;-73
2023/06/24 12:07:03;;;;;;;0.80;0.80;;;23.40;99.90;;;;;;5057584;28;20029;-72
2023/06/24 12:09:29;;;;;;;0.10;0.10;;;23.40;99.90;;;;;;5057280;28;20025;-72
2023/06/24 12:11:55;;;;;;;0.20;0.20;;;23.30;99.90;;;;;;5057142;28;20021;-72
2023/06/24 12:14:21;;;;;;;0.20;0.20;;;23.20;99.90;;;;;;5058151;28;20169;-72
2023/06/24 12:16:46;;;;;;;0.52;0.52;;;23.10;99.90;;;;;;5056909;28;20017;-72
2023/06/24 12:19:12;;;;;;;0.10;0.10;;;22.80;99.90;;;;;;5056934;28;20028;-72
2023/06/24 12:21:38;;;;;;;0.10;0.10;;;22.70;99.90;;;;;;5057216;28;20078;-74
2023/06/24 12:24:05;;;;;;;6.72;2.25;;;22.70;99.90;;;;;;5057300;28;20035;-74
2023/06/24 12:26:33;;;;;;;0.20;0.20;;;22.80;99.90;;;;;;5057267;28;20687;-74
2023/06/24 12:29:00;;;;;;;0.40;0.40;;;22.80;99.90;;;;;;5057061;28;20017;-73
2023/06/24 12:31:25;;;;;;;0.10;0.10;;;22.70;99.90;;;;;;5057380;28;20013;-74
2023/06/24 12:33:52;;;;;;;0.65;0.65;;;22.50;99.90;;;;;;5039201;28;20027;-72
2023/06/24 12:36:22;;;;;;;0.20;0.20;;;22.50;99.90;;;;;;5060524;28;20028;-72
2023/06/24 12:38:48;;;;;;;0.10;0.10;;;22.40;99.90;;;;;;5040243;28;20029;-73
2023/06/24 12:41:13;;;;;;;0.10;0.10;;;22.50;99.90;;;;;;5044150;28;20107;-74
2023/06/24 12:43:40;;;;;;;0.10;0.10;;;22.40;99.90;;;;;;5061693;28;20127;-73
2023/06/24 12:46:05;;;;;;;0.52;0.52;;;22.00;99.90;;;;;;5063744;28;20675;-77
2023/06/24 12:48:31;;;;;;;1.35;1.33;;;22.20;99.90;;;;;;5062422;28;20070;-72